Carlisle, Washington
Current Conditions -  °F | °C
As of 11:00 PM on Friday 24 Oct 2014 (Local Time) from KHQM Reporting Station
Light Rain Light Rain  
Wind Chill: 51°   Ceiling: 3700
Heat Index: 51°   Visibility: 3mi
Dew Point: 49°   Wind: 18mph
Humidity: 92%   Direction: 50°NE
Pressure: 29.69"   Gusts: 24mph
Location:  47.1425°N, 124.097°W
Report Text: KHQM 250600Z AUTO 05016G21KT 3SM -RA BR FEW011 BKN037 OVC047 11/09 A2969 RMK AO2 P0001 T01060094
Loading
Personal Weather Stations






























Interactive Weather Map New forecast layout! Learn more

10-Day Weather Forecast

Advertisements
Track Severe Weather on mobile